Time;durP1;ratioP1;P1;durP2;ratioP2;P2;SDS_P1;SDS_P2;PMS_P1;PMS_P2;Temp;Humidity;BMP_temperature;BMP_pressure;BME280_temperature;BME280_humidity;BME280_pressure;Samples;Min_cycle;Max_cycle;Signal;HPM_P1;HPM_P2
2020/12/31 00:02:06;;;;;;;4.10;3.80;;;4.90;99.90;;;;;;10479528;28;20607;-84
2020/12/31 00:07:08;;;;;;;4.40;4.03;;;4.90;99.90;;;;;;10500015;28;20209;-82
2020/12/31 00:12:12;;;;;;;4.67;4.27;;;4.70;99.90;;;;;;10478028;28;20274;-84
2020/12/31 00:17:14;;;;;;;4.90;4.50;;;4.50;99.90;;;;;;10478197;28;20200;-84
2020/12/31 00:22:15;;;;;;;5.00;4.67;;;4.40;99.90;;;;;;10511184;28;20231;-83
2020/12/31 00:27:18;;;;;;;5.80;5.40;;;4.40;99.90;;;;;;10494421;28;20622;-82
2020/12/31 00:32:19;;;;;;;5.20;4.70;;;4.60;99.90;;;;;;10494095;28;20228;-83
2020/12/31 00:37:21;;;;;;;4.63;4.33;;;4.70;99.90;;;;;;10494412;28;20200;-83
2020/12/31 00:42:24;;;;;;;4.93;4.60;;;4.80;99.90;;;;;;10495493;28;20227;-83
2020/12/31 00:47:26;;;;;;;4.83;4.37;;;4.80;99.90;;;;;;10476912;28;20201;-84
2020/12/31 00:52:28;;;;;;;3.77;3.57;;;4.90;99.90;;;;;;10494928;28;20216;-84
2020/12/31 00:57:30;;;;;;;3.10;2.90;;;4.90;99.90;;;;;;10510200;28;20546;-84
2020/12/31 01:02:32;;;;;;;4.00;3.60;;;4.80;99.90;;;;;;10500299;28;20220;-82
2020/12/31 01:07:34;;;;;;;3.70;3.50;;;4.80;99.90;;;;;;10495430;28;20208;-85
2020/12/31 01:12:37;;;;;;;3.20;3.00;;;4.90;99.90;;;;;;10494158;28;20236;-84
2020/12/31 01:17:38;;;;;;;3.50;3.30;;;4.90;99.90;;;;;;10494635;28;20664;-83
2020/12/31 01:22:40;;;;;;;3.53;3.23;;;4.90;99.90;;;;;;10479298;28;20220;-84
2020/12/31 01:27:43;;;;;;;3.57;3.30;;;4.80;99.90;;;;;;10493955;28;20224;-84
2020/12/31 01:32:44;;;;;;;3.77;3.47;;;4.60;99.90;;;;;;10477470;28;20696;-84
2020/12/31 01:37:46;;;;;;;3.60;3.40;;;4.50;99.90;;;;;;10493034;28;20196;-84
2020/12/31 01:42:48;;;;;;;3.60;3.30;;;4.40;99.90;;;;;;10492454;28;20235;-84
2020/12/31 01:47:50;;;;;;;3.67;3.37;;;4.30;99.90;;;;;;10497035;28;20269;-84
2020/12/31 01:52:52;;;;;;;6.63;3.97;;;4.10;99.90;;;;;;10494002;28;20224;-84
2020/12/31 01:57:54;;;;;;;3.90;3.60;;;4.00;99.90;;;;;;10465831;28;20205;-84
2020/12/31 02:02:56;;;;;;;4.00;3.70;;;3.90;99.90;;;;;;10447921;28;20224;-84
2020/12/31 02:08:00;;;;;;;4.60;4.20;;;3.80;99.90;;;;;;10451264;28;20193;-83
2020/12/31 02:13:02;;;;;;;4.70;4.40;;;3.80;99.90;;;;;;10434414;28;20213;-82
2020/12/31 02:18:04;;;;;;;5.20;4.80;;;3.70;99.90;;;;;;10452148;28;20217;-82
2020/12/31 02:23:07;;;;;;;4.57;4.17;;;3.70;99.90;;;;;;10444926;28;20255;-84
2020/12/31 02:28:08;;;;;;;4.83;4.47;;;3.80;99.90;;;;;;10498621;28;20228;-84
2020/12/31 02:33:10;;;;;;;5.70;5.20;;;3.70;99.90;;;;;;10502228;28;20230;-85
2020/12/31 02:38:12;;;;;;;5.20;4.70;;;3.80;99.90;;;;;;10500394;28;20216;-83
2020/12/31 02:43:14;;;;;;;5.20;4.80;;;3.80;99.90;;;;;;10484529;28;20232;-84
2020/12/31 02:48:15;;;;;;;4.70;4.40;;;3.70;99.90;;;;;;10484170;28;20576;-84
2020/12/31 02:53:21;;;;;;;5.70;5.20;;;3.70;99.90;;;;;;10485555;28;20796;-84
2020/12/31 02:58:23;;;;;;;5.50;5.00;;;3.70;99.90;;;;;;10481402;28;20303;-81
2020/12/31 03:03:24;;;;;;;5.47;5.07;;;3.70;99.90;;;;;;10498207;28;20255;-84
2020/12/31 03:08:27;;;;;;;5.67;5.17;;;3.70;99.90;;;;;;10498110;28;20199;-82
2020/12/31 03:13:29;;;;;;;5.20;4.80;;;3.70;99.90;;;;;;10498281;28;20242;-82
2020/12/31 03:18:30;;;;;;;5.13;4.77;;;3.70;99.90;;;;;;10499191;28;20200;-82
2020/12/31 03:23:33;;;;;;;6.03;5.53;;;3.60;99.90;;;;;;10483052;28;20699;-82
2020/12/31 03:28:34;;;;;;;6.30;5.40;;;3.60;99.90;;;;;;10501062;28;20200;-85
2020/12/31 03:33:36;;;;;;;5.03;4.63;;;3.50;99.90;;;;;;10481166;28;20653;-82
2020/12/31 03:38:39;;;;;;;4.57;4.27;;;3.50;99.90;;;;;;10503219;28;20220;-80
2020/12/31 03:43:40;;;;;;;6.20;5.70;;;3.40;99.90;;;;;;10483405;28;20229;-82
2020/12/31 03:48:42;;;;;;;7.00;6.30;;;3.30;99.90;;;;;;10499066;28;20200;-80
2020/12/31 03:53:44;;;;;;;6.37;5.87;;;3.30;99.90;;;;;;10482286;28;20227;-81
2020/12/31 03:58:46;;;;;;;5.80;5.30;;;3.30;99.90;;;;;;10500626;28;20205;-83
2020/12/31 04:03:47;;;;;;;7.43;6.83;;;3.30;99.90;;;;;;10496911;28;20232;-82
2020/12/31 04:08:50;;;;;;;6.93;6.33;;;3.30;99.90;;;;;;10480417;28;20197;-82
2020/12/31 04:13:52;;;;;;;7.00;6.40;;;3.30;99.90;;;;;;10497761;28;20220;-83
2020/12/31 04:18:53;;;;;;;5.93;5.47;;;3.20;99.90;;;;;;10480669;28;20241;-82
2020/12/31 04:23:56;;;;;;;4.90;4.53;;;3.30;99.90;;;;;;10494483;28;20216;-81
2020/12/31 04:28:57;;;;;;;5.47;4.97;;;3.30;99.90;;;;;;10479956;28;20200;-82
2020/12/31 04:33:59;;;;;;;4.40;3.80;;;3.20;99.90;;;;;;10484496;28;20700;-84
2020/12/31 04:39:02;;;;;;;5.07;4.57;;;3.20;99.90;;;;;;10504033;28;20256;-82
2020/12/31 04:44:04;;;;;;;4.00;3.60;;;3.20;99.90;;;;;;10502933;28;20224;-83
2020/12/31 04:49:09;;;;;;;3.83;3.53;;;3.20;99.90;;;;;;10501979;28;20247;-80
2020/12/31 04:54:13;;;;;;;3.90;3.60;;;3.20;99.90;;;;;;10519790;28;20224;-82
2020/12/31 04:59:15;;;;;;;4.27;3.97;;;3.10;99.90;;;;;;10509933;28;20204;-81
2020/12/31 05:04:17;;;;;;;4.47;4.07;;;3.10;99.90;;;;;;10508831;28;20209;-81
2020/12/31 05:09:20;;;;;;;4.03;3.73;;;3.10;99.90;;;;;;10507652;28;20204;-82
2020/12/31 05:14:29;;;;;;;3.60;3.33;;;3.10;99.90;;;;;;10508057;28;20726;-81
2020/12/31 05:19:31;;;;;;;3.87;3.57;;;3.00;99.90;;;;;;10491602;28;20212;-82
2020/12/31 05:24:34;;;;;;;3.87;3.63;;;3.00;99.90;;;;;;10510378;28;20208;-82
2020/12/31 05:29:36;;;;;;;4.43;4.10;;;2.90;99.90;;;;;;10491311;28;20283;-81
2020/12/31 05:34:38;;;;;;;3.80;3.50;;;2.90;99.90;;;;;;10524625;28;20219;-82
2020/12/31 05:39:58;;;;;;;3.33;3.13;;;2.90;99.90;;;;;;10507367;28;20579;-81
2020/12/31 05:45:11;;;;;;;3.30;3.10;;;3.00;99.90;;;;;;10524853;28;20242;-81
2020/12/31 05:50:17;;;;;;;3.93;3.63;;;3.00;99.90;;;;;;10495027;28;20281;-80
2020/12/31 05:55:22;;;;;;;3.47;3.27;;;2.90;99.90;;;;;;10514302;28;20216;-81
2020/12/31 06:00:25;;;;;;;3.80;3.50;;;2.90;99.90;;;;;;10506907;28;20513;-81
2020/12/31 06:05:28;;;;;;;4.77;4.37;;;2.90;99.90;;;;;;10507869;28;20193;-82
2020/12/31 06:10:32;;;;;;;7.40;6.23;;;2.90;99.90;;;;;;10508562;28;20208;-82
2020/12/31 06:15:35;;;;;;;4.90;4.50;;;2.90;99.90;;;;;;10508284;28;20761;-82
2020/12/31 06:20:37;;;;;;;4.10;3.80;;;2.90;99.90;;;;;;10508156;28;20307;-84
2020/12/31 06:25:44;;;;;;;5.00;4.60;;;2.90;99.90;;;;;;10507538;28;20197;-84
2020/12/31 06:30:47;;;;;;;4.60;4.20;;;2.90;99.90;;;;;;10508261;28;20299;-83
2020/12/31 06:35:53;;;;;;;4.67;4.27;;;2.80;99.90;;;;;;10507137;28;20271;-83
2020/12/31 06:40:56;;;;;;;4.30;4.00;;;2.80;99.90;;;;;;10492984;28;20224;-84
2020/12/31 06:45:58;;;;;;;5.07;4.67;;;2.90;99.90;;;;;;10493720;28;20220;-84
2020/12/31 06:51:01;;;;;;;5.43;5.03;;;3.00;99.90;;;;;;10507325;28;20216;-84
2020/12/31 06:56:05;;;;;;;4.43;4.03;;;3.10;99.90;;;;;;10505918;28;20196;-84
2020/12/31 07:01:26;;;;;;;5.53;5.03;;;3.20;99.90;;;;;;10488200;28;20216;-85
2020/12/31 07:06:32;;;;;;;6.93;6.33;;;3.30;99.90;;;;;;10522581;28;20188;-83
2020/12/31 07:11:37;;;;;;;6.17;5.67;;;3.40;99.90;;;;;;10508689;28;20292;-84
2020/12/31 07:16:39;;;;;;;7.27;6.67;;;3.40;99.90;;;;;;10495659;28;20273;-83
2020/12/31 07:21:41;;;;;;;6.90;6.20;;;3.50;99.70;;;;;;10490949;28;20227;-84
2020/12/31 07:26:45;;;;;;;5.90;5.40;;;3.50;99.90;;;;;;10525165;28;20224;-82
2020/12/31 07:31:49;;;;;;;6.70;6.10;;;3.60;99.40;;;;;;10506919;28;20586;-82
2020/12/31 07:36:58;;;;;;;6.43;5.83;;;3.60;99.60;;;;;;10507584;28;20196;-83
2020/12/31 07:42:17;;;;;;;6.67;6.17;;;3.60;99.90;;;;;;10507217;28;20223;-83
2020/12/31 07:47:20;;;;;;;6.97;6.37;;;3.70;99.80;;;;;;10524138;28;20189;-83
2020/12/31 07:52:22;;;;;;;6.70;6.07;;;3.80;99.90;;;;;;10506963;28;20293;-84
2020/12/31 07:57:25;;;;;;;6.90;6.30;;;3.90;99.90;;;;;;10486209;28;20296;-82
2020/12/31 08:02:27;;;;;;;7.20;6.60;;;4.10;99.90;;;;;;10508309;28;20227;-84
2020/12/31 08:07:29;;;;;;;7.27;6.67;;;4.20;99.60;;;;;;10493383;28;20331;-82
2020/12/31 08:12:31;;;;;;;6.40;5.90;;;4.30;99.20;;;;;;10529371;28;20350;-82
2020/12/31 08:17:33;;;;;;;7.10;6.50;;;4.30;98.90;;;;;;10506772;28;20238;-82
2020/12/31 08:22:40;;;;;;;7.33;6.73;;;4.40;99.10;;;;;;10510954;28;20227;-82
2020/12/31 08:27:44;;;;;;;7.23;6.63;;;4.50;98.60;;;;;;10505597;28;20193;-82
2020/12/31 08:32:51;;;;;;;7.07;6.47;;;4.50;98.40;;;;;;10491230;28;20224;-83
2020/12/31 08:38:00;;;;;;;6.97;6.37;;;4.50;98.50;;;;;;10506112;28;20235;-83
2020/12/31 08:43:03;;;;;;;7.50;6.80;;;4.50;98.20;;;;;;10507630;28;20252;-82
2020/12/31 08:48:12;;;;;;;7.13;6.23;;;4.60;98.30;;;;;;10490291;28;20384;-82
2020/12/31 08:53:14;;;;;;;8.60;7.80;;;4.60;98.30;;;;;;10490711;28;20213;-83
2020/12/31 08:58:18;;;;;;;8.93;7.70;;;4.70;98.50;;;;;;10501398;28;20209;-81
2020/12/31 09:03:20;;;;;;;8.07;7.27;;;4.80;98.30;;;;;;10510437;28;20280;-81
2020/12/31 09:08:21;;;;;;;7.97;7.27;;;4.80;98.30;;;;;;10493708;28;20196;-79
2020/12/31 09:13:24;;;;;;;8.00;7.30;;;4.90;98.50;;;;;;10490905;28;20217;-81
2020/12/31 09:18:27;;;;;;;9.07;8.27;;;5.00;98.40;;;;;;10493692;28;20260;-81
2020/12/31 09:23:28;;;;;;;9.10;8.20;;;5.00;98.10;;;;;;10491944;28;20232;-83
2020/12/31 09:28:31;;;;;;;8.93;8.03;;;5.10;98.60;;;;;;10489878;28;20208;-81
2020/12/31 09:33:33;;;;;;;8.43;7.57;;;5.20;98.30;;;;;;10507095;28;20229;-82
2020/12/31 09:38:35;;;;;;;7.53;6.83;;;5.20;98.00;;;;;;10490292;28;20640;-82
2020/12/31 09:43:37;;;;;;;7.40;6.73;;;5.30;98.00;;;;;;10506973;28;20239;-81
2020/12/31 09:48:39;;;;;;;7.67;6.97;;;5.30;97.60;;;;;;10505342;28;20287;-82
2020/12/31 09:53:41;;;;;;;8.03;7.33;;;5.40;97.80;;;;;;10506275;28;20208;-80
2020/12/31 09:58:43;;;;;;;8.47;7.77;;;5.40;97.30;;;;;;10505542;28;20196;-82
2020/12/31 10:03:45;;;;;;;12.03;10.83;;;5.60;97.00;;;;;;10506525;28;20660;-83
2020/12/31 10:08:48;;;;;;;9.63;8.73;;;5.60;97.50;;;;;;10506127;28;20664;-81
2020/12/31 10:13:51;;;;;;;7.40;6.80;;;5.70;97.10;;;;;;10512718;28;20640;-81
2020/12/31 10:18:52;;;;;;;6.87;6.27;;;5.70;97.00;;;;;;10526208;28;20200;-82
2020/12/31 10:23:54;;;;;;;7.97;7.27;;;5.90;96.40;;;;;;10507175;28;20232;-84
2020/12/31 10:28:56;;;;;;;7.40;6.80;;;5.90;96.10;;;;;;10507934;28;20239;-83
2020/12/31 10:33:58;;;;;;;7.70;7.10;;;6.00;96.10;;;;;;10506907;28;20228;-81
2020/12/31 10:39:01;;;;;;;7.23;6.60;;;6.00;95.40;;;;;;10511426;28;20192;-83
2020/12/31 10:44:04;;;;;;;7.97;7.20;;;6.10;95.80;;;;;;10509127;28;20611;-81
2020/12/31 10:49:06;;;;;;;5.97;5.47;;;6.10;95.80;;;;;;10510485;28;20197;-83
2020/12/31 10:54:08;;;;;;;6.73;6.13;;;6.10;96.60;;;;;;10490651;28;20224;-82
2020/12/31 10:59:10;;;;;;;5.83;5.33;;;6.10;96.50;;;;;;10523773;28;20264;-82
2020/12/31 11:04:12;;;;;;;6.30;5.80;;;6.00;97.80;;;;;;10511929;28;20278;-82
2020/12/31 11:09:14;;;;;;;6.43;5.83;;;5.80;98.50;;;;;;10529154;28;20196;-82
2020/12/31 11:14:16;;;;;;;6.20;5.70;;;5.80;99.90;;;;;;10511165;28;20311;-81
2020/12/31 11:19:18;;;;;;;6.07;5.60;;;5.80;99.90;;;;;;10528706;28;20200;-81
2020/12/31 11:24:20;;;;;;;5.37;4.97;;;5.80;99.90;;;;;;10515308;28;20244;-81
2020/12/31 11:29:22;;;;;;;6.37;5.83;;;5.80;99.90;;;;;;10508009;28;20201;-81
2020/12/31 11:34:24;;;;;;;6.53;5.93;;;5.80;99.90;;;;;;10509306;28;20304;-81
2020/12/31 11:39:25;;;;;;;7.07;6.47;;;5.80;99.90;;;;;;10509679;28;20193;-81
2020/12/31 11:44:28;;;;;;;5.43;5.03;;;5.90;99.90;;;;;;10508648;28;20212;-82
2020/12/31 11:49:30;;;;;;;6.47;5.97;;;6.00;99.90;;;;;;10508134;28;20679;-80
2020/12/31 11:54:31;;;;;;;7.37;6.63;;;6.10;99.90;;;;;;10508700;28;20244;-81
2020/12/31 11:59:34;;;;;;;7.50;6.87;;;6.10;99.90;;;;;;10508150;28;20568;-81
2020/12/31 12:04:35;;;;;;;7.87;7.17;;;6.10;99.90;;;;;;10486250;28;20261;-81
2020/12/31 12:09:37;;;;;;;8.30;7.60;;;6.20;99.90;;;;;;10513125;28;20223;-80
2020/12/31 12:14:40;;;;;;;7.30;6.60;;;6.30;99.90;;;;;;10521505;28;20240;-81
2020/12/31 12:19:41;;;;;;;7.70;7.00;;;6.30;99.90;;;;;;10525409;28;20201;-81
2020/12/31 12:24:43;;;;;;;7.47;6.77;;;6.30;99.90;;;;;;10496483;28;20216;-81
2020/12/31 12:29:45;;;;;;;8.13;7.43;;;6.30;99.90;;;;;;10522838;28;20291;-84
2020/12/31 12:34:47;;;;;;;7.00;6.43;;;6.30;99.90;;;;;;10487233;28;20225;-81
2020/12/31 12:39:49;;;;;;;6.27;5.67;;;6.30;99.90;;;;;;10490465;28;20232;-82
2020/12/31 12:44:51;;;;;;;7.37;6.77;;;6.30;99.90;;;;;;10518041;28;20285;-82
2020/12/31 12:49:53;;;;;;;8.20;6.53;;;6.30;99.90;;;;;;10483999;28;20284;-81
2020/12/31 12:54:54;;;;;;;7.00;6.30;;;6.30;99.90;;;;;;10506437;28;21738;-81
2020/12/31 12:59:57;;;;;;;6.87;6.27;;;6.40;99.90;;;;;;10507869;28;20192;-81
2020/12/31 13:04:59;;;;;;;6.97;5.53;;;6.40;99.90;;;;;;10526921;28;20217;-81
2020/12/31 13:10:00;;;;;;;5.83;5.33;;;6.40;99.90;;;;;;10529248;28;20199;-82
2020/12/31 13:15:04;;;;;;;5.77;5.27;;;6.40;99.90;;;;;;10513439;28;20266;-81
2020/12/31 13:20:07;;;;;;;5.07;4.70;;;6.50;99.90;;;;;;10511703;28;20509;-82
2020/12/31 13:25:09;;;;;;;4.30;4.00;;;6.60;99.90;;;;;;10482617;28;20591;-81
2020/12/31 13:30:13;;;;;;;4.53;4.20;;;6.50;99.90;;;;;;10508946;28;20208;-83
2020/12/31 13:35:14;;;;;;;4.20;3.90;;;6.50;99.90;;;;;;10501107;28;20430;-82
2020/12/31 13:40:18;;;;;;;5.07;4.57;;;6.50;99.90;;;;;;10505643;28;20349;-81
2020/12/31 13:45:20;;;;;;;4.50;4.10;;;6.50;99.90;;;;;;10485018;28;20224;-82
2020/12/31 13:50:23;;;;;;;6.10;4.60;;;6.50;99.90;;;;;;10522602;28;20291;-81
2020/12/31 13:55:24;;;;;;;4.60;4.00;;;6.50;99.90;;;;;;10506647;28;20201;-82
2020/12/31 14:00:27;;;;;;;4.87;4.47;;;6.50;99.90;;;;;;10514238;28;20741;-82
2020/12/31 14:05:28;;;;;;;5.00;4.60;;;6.40;99.80;;;;;;10500284;28;20699;-82
2020/12/31 14:10:30;;;;;;;4.10;3.77;;;6.40;99.90;;;;;;10480780;28;20728;-82
2020/12/31 14:15:33;;;;;;;4.40;4.10;;;6.30;99.90;;;;;;10497251;28;20285;-82
2020/12/31 14:20:35;;;;;;;4.10;3.70;;;6.40;99.90;;;;;;10501279;28;20220;-82
2020/12/31 14:25:37;;;;;;;4.20;3.70;;;6.50;99.90;;;;;;10489077;28;20204;-81
2020/12/31 14:30:39;;;;;;;4.63;4.23;;;6.60;99.90;;;;;;10507842;28;20228;-82
2020/12/31 14:35:41;;;;;;;4.50;4.10;;;6.60;99.90;;;;;;10505999;28;20291;-82
2020/12/31 14:40:43;;;;;;;4.37;3.97;;;6.50;99.90;;;;;;10485825;28;20220;-81
2020/12/31 14:45:50;;;;;;;3.50;3.30;;;6.50;99.90;;;;;;10515425;28;20200;-81
2020/12/31 14:50:52;;;;;;;5.53;5.03;;;6.50;99.90;;;;;;10505525;28;20734;-82
2020/12/31 14:55:54;;;;;;;4.23;3.93;;;6.50;99.90;;;;;;10489301;28;20204;-82
2020/12/31 15:00:57;;;;;;;5.00;4.60;;;6.50;99.90;;;;;;10506515;28;20707;-81
2020/12/31 15:05:58;;;;;;;4.10;3.73;;;6.50;99.90;;;;;;10492311;28;20291;-81
2020/12/31 15:11:00;;;;;;;4.60;4.20;;;6.50;99.90;;;;;;10477089;28;20251;-83
2020/12/31 15:16:03;;;;;;;5.43;4.93;;;6.50;99.90;;;;;;10502802;28;20299;-82
2020/12/31 15:21:06;;;;;;;5.03;4.63;;;6.50;99.90;;;;;;10495882;28;20224;-83
2020/12/31 15:26:09;;;;;;;5.70;5.20;;;6.50;99.90;;;;;;10506707;28;20203;-83
2020/12/31 15:31:11;;;;;;;9.10;6.00;;;6.50;99.90;;;;;;10489980;28;20763;-83
2020/12/31 15:36:13;;;;;;;16.37;13.17;;;6.50;99.90;;;;;;10489625;28;20665;-82
2020/12/31 15:41:15;;;;;;;9.70;7.03;;;6.50;99.90;;;;;;10503384;28;20232;-82
2020/12/31 15:46:18;;;;;;;5.00;4.60;;;6.50;99.90;;;;;;10501413;28;20201;-83
2020/12/31 15:51:20;;;;;;;7.10;6.40;;;6.50;99.90;;;;;;10519184;28;20220;-83
2020/12/31 15:56:21;;;;;;;6.10;5.60;;;6.50;99.90;;;;;;10472051;28;20196;-85
2020/12/31 16:01:24;;;;;;;5.53;5.03;;;6.40;99.90;;;;;;10482914;28;20662;-85
2020/12/31 16:06:26;;;;;;;7.37;6.67;;;6.40;99.90;;;;;;10491108;28;20660;-82
2020/12/31 16:11:28;;;;;;;7.87;7.03;;;6.30;99.90;;;;;;10492708;28;20582;-82
2020/12/31 16:16:31;;;;;;;7.53;6.83;;;6.20;99.90;;;;;;10486795;28;20196;-83
2020/12/31 16:21:33;;;;;;;8.67;7.87;;;6.20;99.90;;;;;;10489499;28;20216;-83
2020/12/31 16:26:35;;;;;;;7.27;6.60;;;6.20;99.90;;;;;;10491156;28;20263;-82
2020/12/31 16:31:40;;;;;;;8.30;7.50;;;6.30;99.90;;;;;;10492063;28;20711;-82
2020/12/31 16:36:42;;;;;;;10.47;9.47;;;6.30;99.90;;;;;;10502610;28;20213;-81
2020/12/31 16:41:44;;;;;;;11.17;10.07;;;6.30;99.90;;;;;;10487023;28;20224;-81
2020/12/31 16:46:53;;;;;;;8.37;7.57;;;6.30;99.90;;;;;;10499230;28;20204;-80
2020/12/31 16:51:55;;;;;;;7.50;6.80;;;6.30;99.90;;;;;;10499817;28;20266;-79
2020/12/31 16:56:59;;;;;;;8.77;7.17;;;6.30;99.90;;;;;;10500121;28;20288;-79
2020/12/31 17:02:02;;;;;;;8.03;7.23;;;6.30;99.90;;;;;;10497089;28;20324;-79
2020/12/31 17:07:04;;;;;;;7.73;6.97;;;6.30;99.90;;;;;;10499278;28;20292;-78
2020/12/31 17:12:06;;;;;;;6.33;5.73;;;6.30;99.90;;;;;;10495729;28;20208;-81
2020/12/31 17:17:09;;;;;;;9.30;8.40;;;6.20;99.90;;;;;;10502994;28;20197;-79
2020/12/31 17:22:10;;;;;;;6.80;6.20;;;6.20;99.90;;;;;;10513802;28;20220;-79
2020/12/31 17:27:12;;;;;;;7.47;6.80;;;6.10;99.90;;;;;;10497850;28;20209;-79
2020/12/31 17:32:16;;;;;;;5.80;5.30;;;6.00;99.90;;;;;;10500470;28;20232;-80
2020/12/31 17:37:18;;;;;;;6.47;5.90;;;5.90;99.90;;;;;;10489439;28;20334;-82
2020/12/31 17:42:20;;;;;;;8.40;7.33;;;5.80;99.90;;;;;;10481904;28;20311;-84
2020/12/31 17:47:22;;;;;;;10.43;9.43;;;5.80;99.90;;;;;;10501789;28;20200;-82
2020/12/31 17:52:24;;;;;;;13.17;12.00;;;5.80;99.90;;;;;;10490078;28;20224;-83
2020/12/31 17:57:26;;;;;;;10.40;9.40;;;5.80;99.90;;;;;;10479428;28;20196;-83
2020/12/31 18:02:34;;;;;;;10.90;9.90;;;5.80;99.90;;;;;;10474992;28;20227;-82
2020/12/31 18:07:36;;;;;;;9.23;8.43;;;5.80;99.90;;;;;;10489338;28;20205;-83
2020/12/31 18:12:38;;;;;;;8.60;7.70;;;5.80;99.90;;;;;;10476713;28;20220;-81
2020/12/31 18:17:40;;;;;;;7.73;7.03;;;5.70;99.90;;;;;;10498931;28;20443;-82
2020/12/31 18:22:42;;;;;;;10.50;7.73;;;5.70;99.90;;;;;;10492073;28;20303;-81
2020/12/31 18:27:44;;;;;;;8.83;8.00;;;5.70;99.90;;;;;;10475994;28;20202;-83
2020/12/31 18:32:47;;;;;;;9.13;8.23;;;5.60;99.90;;;;;;10476890;28;20236;-83
2020/12/31 18:37:49;;;;;;;8.50;7.70;;;5.50;99.90;;;;;;10476212;28;20200;-82
2020/12/31 18:42:52;;;;;;;9.50;8.53;;;5.50;99.90;;;;;;10489837;28;20224;-81
2020/12/31 18:47:56;;;;;;;10.67;9.67;;;5.50;99.90;;;;;;10494000;28;20295;-83
2020/12/31 18:52:58;;;;;;;11.67;10.57;;;5.50;99.90;;;;;;10471107;28;20303;-81
2020/12/31 18:57:59;;;;;;;13.03;11.73;;;5.50;99.90;;;;;;10485295;28;20200;-82
2020/12/31 19:03:02;;;;;;;10.77;9.77;;;5.50;99.90;;;;;;10469389;28;20228;-83
2020/12/31 19:08:06;;;;;;;12.03;10.83;;;5.50;99.90;;;;;;10485570;28;20211;-83
2020/12/31 19:13:07;;;;;;;11.03;10.13;;;5.50;99.90;;;;;;10481419;28;20212;-82
2020/12/31 19:18:10;;;;;;;9.80;8.80;;;5.40;99.90;;;;;;10498264;28;20288;-83
2020/12/31 19:23:12;;;;;;;10.50;9.50;;;5.40;99.90;;;;;;10480950;28;20319;-81
2020/12/31 19:28:13;;;;;;;9.67;8.77;;;5.40;99.90;;;;;;10500733;28;20577;-82
2020/12/31 19:33:16;;;;;;;8.83;8.00;;;5.40;99.90;;;;;;10483130;28;20227;-83
2020/12/31 19:38:18;;;;;;;9.20;8.40;;;5.40;99.90;;;;;;10504620;28;20201;-82
2020/12/31 19:43:20;;;;;;;7.40;6.70;;;5.40;99.90;;;;;;10498648;28;20232;-81
2020/12/31 19:48:22;;;;;;;9.00;8.20;;;5.40;99.90;;;;;;10506572;28;20200;-83
2020/12/31 19:53:24;;;;;;;12.70;11.50;;;5.40;99.90;;;;;;10487746;28;20216;-82
2020/12/31 19:58:26;;;;;;;15.80;13.30;;;5.50;99.90;;;;;;10489230;28;20207;-81
2020/12/31 20:03:32;;;;;;;13.23;11.90;;;5.50;99.90;;;;;;10483643;28;20599;-86
2020/12/31 20:14:19;;;;;;;9.40;8.60;;;5.60;99.90;;;;;;10462339;28;20241;-80
2020/12/31 20:19:23;;;;;;;9.90;8.60;;;5.60;99.90;;;;;;10493911;28;20203;-80
2020/12/31 20:24:24;;;;;;;7.97;7.27;;;5.60;99.90;;;;;;10477829;28;20251;-82
2020/12/31 20:29:27;;;;;;;8.53;7.67;;;5.60;99.90;;;;;;10474531;28;20212;-81
2020/12/31 20:34:30;;;;;;;8.70;7.90;;;5.60;99.90;;;;;;10475368;28;20499;-82
2020/12/31 20:39:32;;;;;;;9.30;8.40;;;5.60;99.90;;;;;;10495684;28;20675;-83
2020/12/31 20:44:34;;;;;;;8.50;7.70;;;5.60;99.90;;;;;;10495745;28;20246;-81
2020/12/31 20:49:36;;;;;;;9.47;7.60;;;5.70;99.90;;;;;;10500320;28;20207;-83
2020/12/31 20:54:38;;;;;;;7.83;7.00;;;5.70;99.90;;;;;;10477621;28;20223;-80
2020/12/31 20:59:40;;;;;;;7.17;6.47;;;5.70;99.90;;;;;;10492558;28;20337;-81
2020/12/31 21:04:44;;;;;;;8.00;7.23;;;5.70;99.90;;;;;;10472660;28;20224;-82
2020/12/31 21:09:47;;;;;;;7.07;6.37;;;5.60;99.90;;;;;;10481987;28;20204;-82
2020/12/31 21:14:49;;;;;;;7.63;6.93;;;5.60;99.90;;;;;;10473663;28;20588;-80
2020/12/31 21:19:51;;;;;;;7.20;6.60;;;5.70;99.90;;;;;;10477900;28;20716;-82
2020/12/31 21:24:53;;;;;;;7.50;6.80;;;5.60;99.90;;;;;;10473399;28;20224;-81
2020/12/31 21:29:55;;;;;;;8.40;7.63;;;5.60;99.90;;;;;;10473146;28;20208;-82
2020/12/31 21:34:57;;;;;;;7.40;6.70;;;5.70;99.90;;;;;;10475077;28;20632;-82
2020/12/31 21:39:59;;;;;;;7.20;6.57;;;5.70;99.90;;;;;;10472803;28;20695;-82
2020/12/31 21:45:08;;;;;;;8.10;7.40;;;5.70;99.90;;;;;;10507226;28;20226;-81
2020/12/31 21:50:11;;;;;;;7.07;6.47;;;5.80;99.90;;;;;;10477323;28;20216;-81
2020/12/31 21:55:14;;;;;;;7.27;6.57;;;5.80;99.90;;;;;;10494832;28;20221;-82
2020/12/31 22:00:17;;;;;;;7.80;7.10;;;5.80;99.90;;;;;;10472985;28;20212;-82
2020/12/31 22:05:26;;;;;;;7.27;6.67;;;5.80;99.90;;;;;;10490481;28;20255;-83
2020/12/31 22:10:28;;;;;;;7.30;6.70;;;5.70;99.90;;;;;;10474751;28;20640;-83
2020/12/31 22:15:30;;;;;;;7.63;6.83;;;5.60;99.90;;;;;;10485273;28;20217;-82
2020/12/31 22:20:33;;;;;;;6.77;6.23;;;5.50;99.90;;;;;;10503082;28;20572;-83
2020/12/31 22:25:36;;;;;;;6.90;6.30;;;5.50;99.90;;;;;;10474857;28;20201;-82
2020/12/31 22:30:39;;;;;;;7.20;6.50;;;5.50;99.90;;;;;;10485375;28;20215;-81
2020/12/31 22:35:45;;;;;;;6.73;6.13;;;5.50;99.90;;;;;;10468030;28;20208;-82
2020/12/31 22:40:47;;;;;;;12.53;11.20;;;5.40;99.90;;;;;;10478084;28;20231;-84
2020/12/31 22:45:50;;;;;;;7.70;7.00;;;5.30;99.90;;;;;;10470099;28;20331;-83
2020/12/31 22:51:27;;;;;;;10.50;9.50;;;5.30;99.90;;;;;;10470317;28;20220;-83
2020/12/31 22:56:46;;;;;;;7.77;7.17;;;5.30;99.90;;;;;;10485053;28;20609;-83
2020/12/31 23:02:01;;;;;;;37.80;30.33;;;5.30;99.90;;;;;;10493013;28;20300;-83
2020/12/31 23:07:22;;;;;;;178.57;145.60;;;5.30;99.90;;;;;;10479539;28;20204;-82
2020/12/31 23:12:24;;;;;;;27.57;24.63;;;5.30;99.90;;;;;;10478539;28;20300;-80
2020/12/31 23:17:26;;;;;;;80.13;68.00;;;5.30;99.90;;;;;;10488912;28;20197;-84
2020/12/31 23:22:28;;;;;;;41.30;36.80;;;5.20;99.90;;;;;;10490296;28;20224;-81
2020/12/31 23:27:30;;;;;;;55.23;49.20;;;5.10;99.90;;;;;;10472096;28;20198;-84
2020/12/31 23:32:32;;;;;;;41.43;36.80;;;5.10;99.90;;;;;;10490723;28;20224;-84
2020/12/31 23:37:36;;;;;;;38.20;34.40;;;5.00;99.90;;;;;;10472944;28;21015;-83
2020/12/31 23:42:38;;;;;;;30.90;27.60;;;4.90;99.90;;;;;;10472296;28;20298;-82
2020/12/31 23:47:41;;;;;;;30.27;24.43;;;4.70;99.90;;;;;;10477040;28;20207;-82
2020/12/31 23:52:44;;;;;;;23.43;21.00;;;4.60;99.90;;;;;;10473036;28;20248;-82
2020/12/31 23:57:46;;;;;;;29.00;25.20;;;4.60;99.90;;;;;;10499822;28;20276;-81
